Time;durP1;ratioP1;P1;durP2;ratioP2;P2;SDS_P1;SDS_P2;PMS_P1;PMS_P2;Temp;Humidity;BMP_temperature;BMP_pressure;BME280_temperature;BME280_humidity;BME280_pressure;Samples;Min_cycle;Max_cycle;Signal;HPM_P1;HPM_P2
2023/06/26 00:01:12;;;;;;;;;;;21.10;73.90;;;;;;4982979;28;923;-72
2023/06/26 00:03:37;;;;;;;;;;;21.10;73.80;;;;;;4984605;28;1895;-72
2023/06/26 00:06:03;;;;;;;;;;;21.10;73.80;;;;;;4986910;28;975;-72
2023/06/26 00:08:28;;;;;;;;;;;21.10;73.80;;;;;;4985111;28;808;-71
2023/06/26 00:10:54;;;;;;;;;;;21.10;73.80;;;;;;4989204;28;1310;-71
2023/06/26 00:13:19;;;;;;;;;;;21.10;73.90;;;;;;4989166;28;826;-72
2023/06/26 00:15:45;;;;;;;;;;;21.10;73.80;;;;;;4986575;28;1044;-72
2023/06/26 00:18:10;;;;;;;;;;;21.10;73.80;;;;;;4986455;28;932;-71
2023/06/26 00:20:36;;;;;;;;;;;21.10;73.80;;;;;;4984117;28;1237;-72
2023/06/26 00:23:04;;;;;;;;;;;21.10;73.80;;;;;;4985255;28;1960;-72
2023/06/26 00:25:29;;;;;;;;;;;21.10;73.90;;;;;;4988538;28;907;-72
2023/06/26 00:27:54;;;;;;;;;;;21.10;73.90;;;;;;4985557;28;1366;-71
2023/06/26 00:30:20;;;;;;;;;;;21.10;73.90;;;;;;4984385;28;1273;-72
2023/06/26 00:32:45;;;;;;;;;;;21.10;73.90;;;;;;4984184;28;1026;-72
2023/06/26 00:35:11;;;;;;;;;;;21.10;73.80;;;;;;4982830;28;932;-72
2023/06/26 00:37:36;;;;;;;;;;;21.10;73.80;;;;;;4984595;28;943;-72
2023/06/26 00:40:04;;;;;;;;;;;21.10;73.90;;;;;;4985025;28;1806;-71
2023/06/26 00:42:30;;;;;;;;;;;21.10;73.90;;;;;;4983965;28;908;-71
2023/06/26 00:44:55;;;;;;;;;;;21.10;73.80;;;;;;4984270;28;1914;-71
2023/06/26 00:47:21;;;;;;;;;;;21.10;73.90;;;;;;4988981;28;888;-71
2023/06/26 00:49:46;;;;;;;;;;;21.10;73.80;;;;;;4984387;28;1715;-71
2023/06/26 00:52:12;;;;;;;;;;;21.10;73.90;;;;;;4971945;28;1411;-72
2023/06/26 00:54:37;;;;;;;;;;;21.10;73.90;;;;;;4984814;28;839;-72
2023/06/26 00:57:03;;;;;;;;;;;21.10;73.90;;;;;;4988808;28;1054;-72
2023/06/26 00:59:28;;;;;;;;;;;21.10;73.90;;;;;;4984400;28;1835;-71
2023/06/26 01:01:54;;;;;;;;;;;21.10;73.90;;;;;;4986697;28;1038;-71
2023/06/26 01:04:19;;;;;;;;;;;21.10;73.80;;;;;;4982941;28;2357;-72
2023/06/26 01:06:48;;;;;;;;;;;21.10;73.90;;;;;;4983429;28;1229;-72
2023/06/26 01:09:15;;;;;;;;;;;21.10;73.90;;;;;;4983952;28;1269;-72
2023/06/26 01:11:40;;;;;;;;;;;21.10;73.90;;;;;;4987892;28;845;-72
2023/06/26 01:14:06;;;;;;;;;;;21.10;73.90;;;;;;4984922;28;900;-71
2023/06/26 01:16:31;;;;;;;;;;;21.10;73.90;;;;;;4983716;28;1137;-72
2023/06/26 01:18:57;;;;;;;;;;;21.10;73.90;;;;;;4983514;28;1344;-72
2023/06/26 01:21:28;;;;;;;;;;;21.10;73.90;;;;;;4981340;28;1010;-72
2023/06/26 01:23:57;;;;;;;;;;;21.10;73.90;;;;;;4981208;28;1964;-72
2023/06/26 01:26:23;;;;;;;;;;;21.10;73.90;;;;;;4984511;28;855;-71
2023/06/26 01:28:51;;;;;;;;;;;21.10;73.90;;;;;;4981436;28;1449;-72
2023/06/26 01:31:17;;;;;;;;;;;21.10;73.90;;;;;;4988247;28;971;-72
2023/06/26 01:33:42;;;;;;;;;;;21.10;73.90;;;;;;4984104;28;892;-72
2023/06/26 01:36:08;;;;;;;;;;;21.10;73.90;;;;;;4983557;28;1367;-71
2023/06/26 01:38:34;;;;;;;;;;;21.10;73.90;;;;;;4984933;28;1244;-72
2023/06/26 01:41:00;;;;;;;;;;;21.10;73.90;;;;;;4988719;28;877;-71
2023/06/26 01:43:36;;;;;;;;;;;21.10;73.90;;;;;;4988605;28;1931;-71
2023/06/26 01:46:21;;;;;;;;;;;21.10;73.90;;;;;;4983684;28;1218;-72
2023/06/26 01:48:50;;;;;;;;;;;21.10;73.90;;;;;;4982237;28;1350;-72
2023/06/26 01:51:15;;;;;;;;;;;21.10;73.90;;;;;;4980545;28;901;-72
2023/06/26 01:53:41;;;;;;;;;;;21.10;73.90;;;;;;4985311;28;892;-72
2023/06/26 01:56:07;;;;;;;;;;;21.10;73.90;;;;;;4983856;28;870;-71
2023/06/26 01:58:33;;;;;;;;;;;21.10;73.90;;;;;;4980635;28;1321;-72
2023/06/26 02:00:58;;;;;;;;;;;21.10;73.90;;;;;;4987325;28;1336;-72
2023/06/26 02:03:24;;;;;;;;;;;21.10;73.90;;;;;;4988303;28;1899;-72
2023/06/26 02:05:50;;;;;;;;;;;21.10;73.90;;;;;;4988458;28;1521;-72
2023/06/26 02:08:16;;;;;;;;;;;21.10;73.90;;;;;;4988283;28;1308;-72
2023/06/26 02:10:41;;;;;;;;;;;21.10;73.90;;;;;;4989180;28;1500;-73
2023/06/26 02:13:10;;;;;;;;;;;21.10;73.90;;;;;;4984933;28;1268;-72
2023/06/26 02:15:35;;;;;;;;;;;21.10;73.90;;;;;;4986168;28;1518;-72
2023/06/26 02:18:01;;;;;;;;;;;21.10;73.90;;;;;;4982443;28;814;-72
2023/06/26 02:20:26;;;;;;;;;;;21.10;73.90;;;;;;4980686;28;1293;-72
2023/06/26 02:22:51;;;;;;;;;;;21.10;73.90;;;;;;4984681;28;1993;-72
2023/06/26 02:25:17;;;;;;;;;;;21.10;73.90;;;;;;4984578;28;870;-72
2023/06/26 02:27:43;;;;;;;;;;;21.10;73.90;;;;;;4989229;28;1552;-72
2023/06/26 02:30:08;;;;;;;;;;;21.10;73.90;;;;;;4987637;28;1390;-72
2023/06/26 02:32:34;;;;;;;;;;;21.10;73.90;;;;;;4989491;28;1414;-72
2023/06/26 02:34:59;;;;;;;;;;;21.10;73.90;;;;;;4991850;28;1460;-73
2023/06/26 02:37:25;;;;;;;;;;;21.10;73.90;;;;;;4988069;28;1559;-73
2023/06/26 02:39:50;;;;;;;;;;;21.10;73.90;;;;;;4988243;28;1403;-72
2023/06/26 02:42:16;;;;;;;;;;;21.10;73.90;;;;;;4989516;28;1417;-71
2023/06/26 02:44:41;;;;;;;;;;;21.10;73.90;;;;;;4989801;28;1911;-71
2023/06/26 02:47:07;;;;;;;;;;;21.10;73.90;;;;;;4987594;28;1404;-72
2023/06/26 02:49:32;;;;;;;;;;;21.10;73.90;;;;;;4989556;28;1322;-72
2023/06/26 02:51:58;;;;;;;;;;;21.10;74.00;;;;;;4989399;28;1394;-71
2023/06/26 02:54:23;;;;;;;;;;;21.10;73.90;;;;;;4986621;28;1789;-72
2023/06/26 02:56:49;;;;;;;;;;;21.10;73.90;;;;;;4986955;28;1400;-73
2023/06/26 02:59:14;;;;;;;;;;;21.10;73.90;;;;;;4985117;28;1404;-72
2023/06/26 03:01:40;;;;;;;;;;;21.10;74.70;;;;;;4984784;28;1334;-70
2023/06/26 03:04:05;;;;;;;;;;;21.10;74.00;;;;;;4987176;28;1951;-70
2023/06/26 03:06:31;;;;;;;;;;;21.10;74.00;;;;;;4987428;28;1329;-71
2023/06/26 03:08:56;;;;;;;;;;;21.10;73.90;;;;;;4988017;28;1429;-72
2023/06/26 03:11:21;;;;;;;;;;;21.10;73.90;;;;;;4989521;28;1546;-73
2023/06/26 03:13:47;;;;;;;;;;;21.10;73.90;;;;;;4990401;28;1340;-74
2023/06/26 03:16:12;;;;;;;;;;;21.10;73.90;;;;;;4986730;28;1318;-73
2023/06/26 03:18:38;;;;;;;;;;;21.10;74.00;;;;;;4988976;28;1438;-73
2023/06/26 03:21:03;;;;;;;;;;;21.10;74.00;;;;;;4988374;28;1604;-71
2023/06/26 03:23:31;;;;;;;;;;;21.10;74.00;;;;;;4989278;28;1894;-72
2023/06/26 03:25:57;;;;;;;;;;;21.10;74.00;;;;;;4987063;28;1007;-72
2023/06/26 03:28:22;;;;;;;;;;;21.10;74.00;;;;;;4986727;28;1272;-72
2023/06/26 03:30:47;;;;;;;;;;;21.10;74.00;;;;;;4988002;28;1269;-73
2023/06/26 03:33:13;;;;;;;;;;;21.10;74.00;;;;;;4986873;28;970;-73
2023/06/26 03:35:38;;;;;;;;;;;21.10;74.00;;;;;;4985353;28;1263;-72
2023/06/26 03:38:04;;;;;;;;;;;21.10;74.00;;;;;;4985989;28;872;-72
2023/06/26 03:40:29;;;;;;;;;;;21.10;74.00;;;;;;4986981;28;1321;-71
2023/06/26 03:42:55;;;;;;;;;;;21.10;74.00;;;;;;4990686;28;1962;-72
2023/06/26 03:45:20;;;;;;;;;;;21.10;74.00;;;;;;4987892;28;1236;-72
2023/06/26 03:47:49;;;;;;;;;;;21.10;74.00;;;;;;4987961;28;907;-71
2023/06/26 03:50:18;;;;;;;;;;;21.10;74.00;;;;;;4990428;28;1291;-72
2023/06/26 03:52:44;;;;;;;;;;;21.10;74.00;;;;;;4984675;28;923;-73
2023/06/26 03:55:09;;;;;;;;;;;21.10;74.00;;;;;;4986415;28;958;-72
2023/06/26 03:57:34;;;;;;;;;;;21.10;74.00;;;;;;4988233;28;946;-73
2023/06/26 04:00:00;;;;;;;;;;;21.10;74.00;;;;;;4988264;28;1261;-73
2023/06/26 04:02:25;;;;;;;;;;;21.10;74.00;;;;;;4987250;28;843;-73
2023/06/26 04:04:52;;;;;;;;;;;21.10;74.00;;;;;;4983113;28;1965;-73
2023/06/26 04:07:18;;;;;;;;;;;21.10;74.00;;;;;;4987003;28;848;-73
2023/06/26 04:09:43;;;;;;;;;;;21.10;74.00;;;;;;4983184;28;1241;-72
2023/06/26 04:12:09;;;;;;;;;;;21.10;74.00;;;;;;4980910;28;913;-72
2023/06/26 04:14:34;;;;;;;;;;;21.10;74.00;;;;;;4988172;28;922;-72
2023/06/26 04:17:03;;;;;;;;;;;21.10;74.00;;;;;;4987782;28;833;-72
2023/06/26 04:19:29;;;;;;;;;;;21.10;74.00;;;;;;4988569;28;1252;-72
2023/06/26 04:21:54;;;;;;;;;;;21.10;74.00;;;;;;4971763;28;1333;-72
2023/06/26 04:24:20;;;;;;;;;;;21.00;73.90;;;;;;4986773;28;1973;-72
2023/06/26 04:26:45;;;;;;;;;;;21.10;74.00;;;;;;4980813;28;895;-72
2023/06/26 04:29:11;;;;;;;;;;;21.10;74.00;;;;;;4982764;28;1458;-72
2023/06/26 04:31:36;;;;;;;;;;;21.10;74.00;;;;;;4984481;28;800;-74
2023/06/26 04:34:02;;;;;;;;;;;21.10;74.00;;;;;;4989295;28;860;-74
2023/06/26 04:36:28;;;;;;;;;;;21.10;74.00;;;;;;4988311;28;876;-72
2023/06/26 04:38:56;;;;;;;;;;;21.10;74.00;;;;;;4987693;28;1291;-72
2023/06/26 04:41:21;;;;;;;;;;;21.00;73.90;;;;;;4982250;28;830;-72
2023/06/26 04:43:47;;;;;;;;;;;21.10;74.00;;;;;;4984374;28;1969;-72
2023/06/26 04:46:12;;;;;;;;;;;21.00;73.90;;;;;;4980779;28;824;-72
2023/06/26 04:48:38;;;;;;;;;;;21.10;74.00;;;;;;4985222;28;1348;-72
2023/06/26 04:51:03;;;;;;;;;;;21.10;74.00;;;;;;4981935;28;1022;-74
2023/06/26 04:53:29;;;;;;;;;;;21.10;74.00;;;;;;4983478;28;801;-73
2023/06/26 04:55:54;;;;;;;;;;;21.10;74.00;;;;;;4989254;28;852;-72
2023/06/26 04:58:20;;;;;;;;;;;21.00;74.70;;;;;;4984229;28;1569;-72
2023/06/26 05:00:45;;;;;;;;;;;21.00;73.90;;;;;;4986185;28;1240;-71
2023/06/26 05:03:11;;;;;;;;;;;21.10;74.00;;;;;;4984487;28;1907;-71
2023/06/26 05:05:36;;;;;;;;;;;21.10;74.00;;;;;;4983527;28;998;-71
2023/06/26 05:08:12;;;;;;;;;;;21.10;74.00;;;;;;4984814;28;829;-71
2023/06/26 05:10:38;;;;;;;;;;;21.00;74.00;;;;;;4980714;28;1371;-73
2023/06/26 05:13:03;;;;;;;;;;;21.10;74.10;;;;;;4986559;28;886;-74
2023/06/26 05:15:29;;;;;;;;;;;21.10;74.00;;;;;;4986031;28;976;-74
2023/06/26 05:17:54;;;;;;;;;;;21.10;74.00;;;;;;4983469;28;946;-74
2023/06/26 05:20:20;;;;;;;;;;;21.10;74.00;;;;;;4982961;28;1267;-74
2023/06/26 05:22:45;;;;;;;;;;;21.10;74.00;;;;;;4984380;28;821;-74
2023/06/26 05:25:11;;;;;;;;;;;21.00;74.00;;;;;;4982447;28;1934;-74
2023/06/26 05:27:36;;;;;;;;;;;21.00;74.00;;;;;;4984120;28;1479;-74
2023/06/26 05:30:02;;;;;;;;;;;21.00;74.00;;;;;;4984980;28;1380;-74
2023/06/26 05:32:28;;;;;;;;;;;21.10;74.00;;;;;;4986162;28;943;-74
2023/06/26 05:34:53;;;;;;;;;;;21.10;74.00;;;;;;4979996;28;1097;-74
2023/06/26 05:37:20;;;;;;;;;;;21.00;73.90;;;;;;4983080;28;1396;-72
2023/06/26 05:39:45;;;;;;;;;;;21.00;74.00;;;;;;4984597;28;1287;-73
2023/06/26 05:42:11;;;;;;;;;;;21.00;73.90;;;;;;4984509;28;884;-73
2023/06/26 05:44:37;;;;;;;;;;;21.10;74.00;;;;;;4982150;28;1939;-73
2023/06/26 05:47:02;;;;;;;;;;;21.10;74.00;;;;;;4981928;28;936;-73
2023/06/26 05:49:27;;;;;;;;;;;21.10;74.00;;;;;;4986424;28;1275;-72
2023/06/26 05:51:53;;;;;;;;;;;21.00;74.00;;;;;;4986725;28;814;-72
2023/06/26 05:54:19;;;;;;;;;;;21.00;73.90;;;;;;4983512;28;1070;-71
2023/06/26 05:56:44;;;;;;;;;;;21.10;74.00;;;;;;4982288;28;899;-73
2023/06/26 05:59:10;;;;;;;;;;;21.10;74.00;;;;;;4983663;28;1344;-72
2023/06/26 06:01:36;;;;;;;;;;;21.00;73.90;;;;;;4985067;28;919;-73
2023/06/26 06:04:01;;;;;;;;;;;21.00;74.00;;;;;;4990695;28;1898;-72
2023/06/26 06:06:27;;;;;;;;;;;21.10;74.00;;;;;;4989255;28;922;-72
2023/06/26 06:08:52;;;;;;;;;;;21.00;74.00;;;;;;4987549;28;1260;-72
2023/06/26 06:11:18;;;;;;;;;;;21.00;74.00;;;;;;4993078;28;1681;-72
2023/06/26 06:13:43;;;;;;;;;;;21.10;74.00;;;;;;4992328;28;979;-73
2023/06/26 06:16:09;;;;;;;;;;;21.10;74.00;;;;;;4992282;28;895;-73
2023/06/26 06:18:37;;;;;;;;;;;21.00;74.00;;;;;;4990113;28;1675;-73
2023/06/26 06:21:02;;;;;;;;;;;21.00;74.00;;;;;;4992563;28;983;-72
2023/06/26 06:23:28;;;;;;;;;;;21.10;74.00;;;;;;4991335;28;1918;-70
2023/06/26 06:25:53;;;;;;;;;;;21.10;74.00;;;;;;4986048;28;784;-70
2023/06/26 06:28:19;;;;;;;;;;;21.10;74.00;;;;;;4985844;28;1503;-70
2023/06/26 06:30:47;;;;;;;;;;;21.00;74.00;;;;;;4986850;28;1712;-70
2023/06/26 06:33:13;;;;;;;;;;;21.10;74.00;;;;;;4984977;28;853;-70
2023/06/26 06:35:38;;;;;;;;;;;21.00;74.00;;;;;;4982262;28;1342;-68
2023/06/26 06:38:04;;;;;;;;;;;21.00;74.00;;;;;;4984807;28;2155;-67
2023/06/26 06:40:29;;;;;;;;;;;21.00;74.00;;;;;;4984576;28;1493;-68
2023/06/26 06:42:55;;;;;;;;;;;21.10;74.00;;;;;;4987532;28;938;-68
2023/06/26 06:45:20;;;;;;;;;;;21.10;74.10;;;;;;4986727;28;1915;-67
2023/06/26 06:47:46;;;;;;;;;;;21.10;74.10;;;;;;4985424;28;1031;-67
2023/06/26 06:50:15;;;;;;;;;;;21.00;74.00;;;;;;4984176;28;1275;-68
2023/06/26 06:52:42;;;;;;;;;;;21.00;74.00;;;;;;4981588;28;834;-68
2023/06/26 06:55:08;;;;;;;;;;;21.00;74.00;;;;;;4979584;28;4046;-68
2023/06/26 06:57:37;;;;;;;;;;;21.10;74.00;;;;;;4985093;28;918;-68
2023/06/26 07:00:04;;;;;;;;;;;21.10;74.00;;;;;;4988799;28;1334;-69
2023/06/26 07:02:30;;;;;;;;;;;21.00;74.00;;;;;;4983326;28;902;-69
2023/06/26 07:04:55;;;;;;;;;;;21.10;74.00;;;;;;4987494;28;1974;-69
2023/06/26 07:07:20;;;;;;;;;;;21.00;74.00;;;;;;4986657;28;871;-69
2023/06/26 07:09:46;;;;;;;;;;;21.10;74.00;;;;;;4979154;28;1347;-69
2023/06/26 07:12:11;;;;;;;;;;;21.00;74.00;;;;;;4982704;28;895;-69
2023/06/26 07:14:37;;;;;;;;;;;21.10;74.00;;;;;;4986202;28;902;-69
2023/06/26 07:17:02;;;;;;;;;;;21.10;74.00;;;;;;4986198;28;814;-69
2023/06/26 07:19:28;;;;;;;;;;;21.10;74.00;;;;;;4984521;28;1257;-69
2023/06/26 07:21:53;;;;;;;;;;;21.10;74.10;;;;;;4987933;28;892;-70
2023/06/26 07:24:19;;;;;;;;;;;21.00;74.00;;;;;;4986290;28;1902;-70
2023/06/26 07:26:44;;;;;;;;;;;21.00;74.00;;;;;;4985798;28;925;-70
2023/06/26 07:29:10;;;;;;;;;;;21.00;73.90;;;;;;4985912;28;1353;-70
2023/06/26 07:31:38;;;;;;;;;;;21.10;74.00;;;;;;4981994;28;1025;-70
2023/06/26 07:34:03;;;;;;;;;;;21.00;74.00;;;;;;4985422;28;1276;-68
2023/06/26 07:36:29;;;;;;;;;;;21.00;74.00;;;;;;4989685;28;1341;-69
2023/06/26 07:38:54;;;;;;;;;;;21.00;74.00;;;;;;4986301;28;1262;-69
2023/06/26 07:41:19;;;;;;;;;;;21.10;74.00;;;;;;4948224;28;1090695;-68
2023/06/26 07:43:45;;;;;;;;;;;21.10;74.00;;;;;;4986472;28;1918;-69
2023/06/26 07:46:10;;;;;;;;;;;21.00;74.00;;;;;;4984340;28;909;-70
2023/06/26 07:48:36;;;;;;;;;;;21.10;74.10;;;;;;4984012;28;1259;-69
2023/06/26 07:51:01;;;;;;;;;;;21.00;74.00;;;;;;4984469;28;1759;-69
2023/06/26 07:53:27;;;;;;;;;;;21.10;74.10;;;;;;4989153;28;982;-69
2023/06/26 07:55:53;;;;;;;;;;;21.00;74.00;;;;;;4986926;28;880;-69
2023/06/26 07:58:18;;;;;;;;;;;21.10;74.00;;;;;;4984730;28;851;-68
2023/06/26 08:00:44;;;;;;;;;;;21.00;74.00;;;;;;4990517;28;1275;-69
2023/06/26 08:03:09;;;;;;;;;;;21.10;74.00;;;;;;4987082;28;1905;-68
2023/06/26 08:05:34;;;;;;;;;;;21.00;74.00;;;;;;4989340;28;884;-68
2023/06/26 08:08:01;;;;;;;;;;;21.00;74.00;;;;;;4987883;28;899;-69
2023/06/26 08:10:27;;;;;;;;;;;21.00;74.00;;;;;;4983917;28;1340;-69
2023/06/26 08:12:52;;;;;;;;;;;21.00;74.00;;;;;;4990715;28;872;-69
2023/06/26 08:15:18;;;;;;;;;;;21.00;74.00;;;;;;4989313;28;876;-70
2023/06/26 08:17:44;;;;;;;;;;;21.10;74.00;;;;;;4984577;28;888;-69
2023/06/26 08:20:10;;;;;;;;;;;21.10;74.00;;;;;;4979428;28;1341;-69
2023/06/26 08:22:36;;;;;;;;;;;21.10;74.10;;;;;;4989330;28;950;-69
2023/06/26 08:25:02;;;;;;;;;;;21.10;74.00;;;;;;4985086;28;1898;-69
2023/06/26 08:27:27;;;;;;;;;;;21.00;74.00;;;;;;4984843;28;1506;-68
2023/06/26 08:29:53;;;;;;;;;;;21.10;74.00;;;;;;4984816;28;1351;-68
2023/06/26 08:32:18;;;;;;;;;;;21.00;74.00;;;;;;4986343;28;939;-69
2023/06/26 08:34:43;;;;;;;;;;;21.10;74.10;;;;;;4984709;28;836;-68
2023/06/26 08:37:09;;;;;;;;;;;21.10;74.00;;;;;;4985855;28;1657;-69
2023/06/26 08:39:35;;;;;;;;;;;21.10;74.10;;;;;;4987887;28;1350;-69
2023/06/26 08:42:00;;;;;;;;;;;21.10;74.10;;;;;;4984474;28;896;-69
2023/06/26 08:44:25;;;;;;;;;;;21.10;74.00;;;;;;4981785;28;1983;-68
2023/06/26 08:46:51;;;;;;;;;;;21.10;74.00;;;;;;4998395;28;974;-68
2023/06/26 08:49:25;;;;;;;;;;;21.00;74.00;;;;;;4985963;28;1363;-68
2023/06/26 08:51:58;;;;;;;;;;;21.10;74.00;;;;;;4989528;28;883;-69
2023/06/26 08:54:28;;;;;;;;;;;21.00;74.00;;;;;;4983388;28;900;-69
2023/06/26 08:56:54;;;;;;;;;;;21.10;74.10;;;;;;4981930;28;840;-69
2023/06/26 08:59:19;;;;;;;;;;;21.00;74.00;;;;;;4982284;28;1251;-68
2023/06/26 09:01:45;;;;;;;;;;;21.10;74.10;;;;;;4985526;28;832;-69
2023/06/26 09:04:10;;;;;;;;;;;21.00;74.00;;;;;;4989765;28;1957;-68
2023/06/26 09:06:35;;;;;;;;;;;21.10;74.00;;;;;;4984082;28;807;-68
2023/06/26 09:09:01;;;;;;;;;;;21.00;73.90;;;;;;4982897;28;1374;-68
2023/06/26 09:11:27;;;;;;;;;;;21.00;74.00;;;;;;4983732;28;876;-68
2023/06/26 09:13:52;;;;;;;;;;;21.10;74.10;;;;;;4991798;28;1341;-67
2023/06/26 09:16:18;;;;;;;;;;;21.00;74.00;;;;;;4989804;28;822;-69
2023/06/26 09:18:45;;;;;;;;;;;21.10;74.00;;;;;;4983119;28;1267;-69
2023/06/26 09:21:10;;;;;;;;;;;21.10;74.00;;;;;;4983097;28;903;-69
2023/06/26 09:23:36;;;;;;;;;;;21.00;74.00;;;;;;4984124;28;1976;-68
2023/06/26 09:26:02;;;;;;;;;;;21.10;74.00;;;;;;4985343;28;849;-69
2023/06/26 09:28:28;;;;;;;;;;;21.10;74.10;;;;;;4984930;28;1455;-69
2023/06/26 09:30:53;;;;;;;;;;;21.00;74.00;;;;;;4984847;28;1271;-70
2023/06/26 09:33:19;;;;;;;;;;;21.00;74.00;;;;;;4986054;28;1275;-69
2023/06/26 09:35:45;;;;;;;;;;;21.10;74.00;;;;;;4983988;28;1322;-69
2023/06/26 09:38:11;;;;;;;;;;;21.10;74.00;;;;;;4983946;28;998;-68
2023/06/26 09:40:38;;;;;;;;;;;21.10;74.00;;;;;;4981717;28;1720;-68
2023/06/26 09:43:09;;;;;;;;;;;21.00;74.00;;;;;;4986467;28;1336;-69
2023/06/26 09:45:38;;;;;;;;;;;21.10;74.00;;;;;;4986733;28;1209;-70
2023/06/26 09:48:04;;;;;;;;;;;21.10;74.00;;;;;;4985612;28;1437;-70
2023/06/26 09:50:29;;;;;;;;;;;21.10;74.00;;;;;;4986465;28;1465;-72
2023/06/26 09:52:55;;;;;;;;;;;21.10;74.00;;;;;;4985891;28;1371;-70
2023/06/26 09:55:23;;;;;;;;;;;21.10;74.00;;;;;;4986419;28;1331;-70
2023/06/26 09:57:52;;;;;;;;;;;21.10;74.10;;;;;;4986443;28;1412;-71
2023/06/26 10:00:17;;;;;;;;;;;21.10;74.10;;;;;;4985180;28;1368;-70
2023/06/26 10:02:43;;;;;;;;;;;21.10;74.10;;;;;;4986029;28;1376;-70
2023/06/26 10:05:09;;;;;;;;;;;21.10;74.00;;;;;;4983372;28;1898;-71
2023/06/26 10:07:34;;;;;;;;;;;21.10;74.00;;;;;;4983919;28;1321;-71
2023/06/26 10:10:00;;;;;;;;;;;21.10;74.00;;;;;;4984391;28;1403;-71
2023/06/26 10:12:27;;;;;;;;;;;21.10;74.00;;;;;;4979290;28;844;-70
2023/06/26 10:14:52;;;;;;;;;;;21.10;74.10;;;;;;4979771;28;896;-71
2023/06/26 10:17:19;;;;;;;;;;;21.10;74.10;;;;;;4981459;28;904;-70
2023/06/26 10:19:45;;;;;;;;;;;21.10;74.10;;;;;;4983005;28;1321;-70
2023/06/26 10:22:11;;;;;;;;;;;21.10;74.10;;;;;;4985913;28;873;-70
2023/06/26 10:24:37;;;;;;;;;;;21.10;74.10;;;;;;4989201;28;1899;-70
2023/06/26 10:27:03;;;;;;;;;;;21.10;74.00;;;;;;4985120;28;1118;-71
2023/06/26 10:29:29;;;;;;;;;;;21.10;74.00;;;;;;4980170;28;1303;-71
2023/06/26 10:31:55;;;;;;;;;;;21.10;74.10;;;;;;4984518;28;1018;-71
2023/06/26 10:34:21;;;;;;;;;;;21.10;74.10;;;;;;4985333;28;931;-71
2023/06/26 10:36:47;;;;;;;;;;;21.10;74.10;;;;;;4988853;28;1002;-71
2023/06/26 10:39:13;;;;;;;;;;;21.10;74.00;;;;;;4980218;28;1283;-70
2023/06/26 10:41:39;;;;;;;;;;;21.10;74.10;;;;;;4981624;28;879;-71
2023/06/26 10:44:07;;;;;;;;;;;21.10;74.00;;;;;;4985354;28;1907;-71
2023/06/26 10:46:52;;;;;;;;;;;21.10;74.00;;;;;;4984521;28;808;-71
2023/06/26 10:49:18;;;;;;;;;;;21.10;74.10;;;;;;4988930;28;1351;-71
2023/06/26 10:51:50;;;;;;;;;;;21.10;74.00;;;;;;4976508;28;1312;-71
2023/06/26 10:54:16;;;;;;;;;;;21.10;74.00;;;;;;4989040;28;798;-71
2023/06/26 10:56:45;;;;;;;;;;;21.10;74.00;;;;;;4984014;28;840;-71
2023/06/26 10:59:20;;;;;;;;;;;21.10;74.00;;;;;;4987206;28;1920;-71
2023/06/26 11:02:01;;;;;;;;;;;21.10;74.10;;;;;;4971327;28;1338;-71
2023/06/26 11:04:47;;;;;;;;;;;21.10;74.00;;;;;;4989031;28;1910;-71
2023/06/26 11:07:17;;;;;;;;;;;21.10;74.10;;;;;;4988054;28;1187;-71
2023/06/26 11:10:03;;;;;;;;;;;21.10;74.00;;;;;;4988679;28;1277;-71
2023/06/26 11:12:35;;;;;;;;;;;21.10;74.00;;;;;;4982803;28;1155;-71
2023/06/26 11:15:00;;;;;;;;;;;21.10;74.00;;;;;;4987650;28;960;-71
2023/06/26 11:17:26;;;;;;;;;;;21.10;74.00;;;;;;4983658;28;871;-71
2023/06/26 11:19:52;;;;;;;;;;;21.10;74.10;;;;;;4991373;28;1224;-71
2023/06/26 11:22:17;;;;;;;;;;;21.10;74.00;;;;;;4988022;28;954;-71
2023/06/26 11:24:43;;;;;;;;;;;21.10;74.00;;;;;;4987971;28;1891;-71
2023/06/26 11:27:08;;;;;;;;;;;21.10;74.00;;;;;;4984723;28;903;-71
2023/06/26 11:29:34;;;;;;;;;;;21.10;74.00;;;;;;4979636;28;1578;-71
2023/06/26 11:32:00;;;;;;;;;;;21.10;74.00;;;;;;4989271;28;890;-71
2023/06/26 11:34:28;;;;;;;;;;;21.10;74.00;;;;;;4986293;28;862;-71
2023/06/26 11:36:56;;;;;;;;;;;21.10;74.00;;;;;;4991972;28;1349;-71
2023/06/26 11:39:21;;;;;;;;;;;21.10;74.00;;;;;;4988243;28;1375;-71
2023/06/26 11:41:46;;;;;;;;;;;21.10;74.00;;;;;;4984961;28;859;-71
2023/06/26 11:44:14;;;;;;;;;;;21.10;74.00;;;;;;4981463;28;1956;-71
2023/06/26 11:46:39;;;;;;;;;;;21.10;74.00;;;;;;4985159;28;844;-70
2023/06/26 11:49:05;;;;;;;;;;;21.10;74.00;;;;;;4986203;28;1390;-70
2023/06/26 11:51:30;;;;;;;;;;;21.10;74.00;;;;;;4984493;28;903;-70
2023/06/26 11:53:56;;;;;;;;;;;21.10;74.00;;;;;;4984952;28;853;-71
2023/06/26 11:56:26;;;;;;;;;;;21.10;74.00;;;;;;4984811;28;872;-70
2023/06/26 11:59:01;;;;;;;;;;;21.10;74.00;;;;;;4987677;28;1273;-71
2023/06/26 12:01:36;;;;;;;;;;;21.10;74.00;;;;;;4985041;28;845;-69
2023/06/26 12:04:03;;;;;;;;;;;21.10;74.00;;;;;;4986815;28;1902;-71
2023/06/26 12:06:32;;;;;;;;;;;21.10;74.00;;;;;;4990798;28;825;-70
2023/06/26 12:09:00;;;;;;;;;;;21.10;74.00;;;;;;4980553;28;1258;-70
2023/06/26 12:11:26;;;;;;;;;;;21.10;74.00;;;;;;4984921;28;1285;-71
2023/06/26 12:13:51;;;;;;;;;;;21.10;73.90;;;;;;4986223;28;1253;-70
2023/06/26 12:16:17;;;;;;;;;;;21.10;74.00;;;;;;4987851;28;1435;-70
2023/06/26 12:18:43;;;;;;;;;;;21.10;74.00;;;;;;4983334;28;1356;-71
2023/06/26 12:21:08;;;;;;;;;;;21.10;74.00;;;;;;4985915;28;1276;-70
2023/06/26 12:23:43;;;;;;;;;;;21.10;74.00;;;;;;4984508;28;1895;-69
2023/06/26 12:26:21;;;;;;;;;;;21.10;73.90;;;;;;4983638;28;939;-69
2023/06/26 12:28:46;;;;;;;;;;;21.10;73.90;;;;;;4986586;28;1478;-69
2023/06/26 12:31:15;;;;;;;;;;;21.10;73.90;;;;;;5003044;28;903;-69
2023/06/26 12:33:42;;;;;;;;;;;21.10;73.90;;;;;;4990129;28;903;-70
2023/06/26 12:36:11;;;;;;;;;;;21.10;73.90;;;;;;4990212;28;1345;-70
2023/06/26 12:38:37;;;;;;;;;;;21.10;73.90;;;;;;4987507;28;1301;-71
2023/06/26 12:41:02;;;;;;;;;;;21.10;73.90;;;;;;4986426;28;848;-71
2023/06/26 12:43:28;;;;;;;;;;;21.10;73.90;;;;;;4988177;28;1906;-70
2023/06/26 12:45:54;;;;;;;;;;;21.10;73.90;;;;;;4985485;28;891;-71
2023/06/26 12:48:20;;;;;;;;;;;21.10;74.00;;;;;;4984619;28;934;-71
2023/06/26 12:50:45;;;;;;;;;;;21.10;74.00;;;;;;4984235;28;1388;-70
2023/06/26 12:53:11;;;;;;;;;;;21.10;73.90;;;;;;4987843;28;1351;-71
2023/06/26 12:55:37;;;;;;;;;;;21.10;73.90;;;;;;4988636;28;1440;-70
2023/06/26 12:58:02;;;;;;;;;;;21.10;73.90;;;;;;4983857;28;1709;-70
2023/06/26 13:00:27;;;;;;;;;;;21.10;73.90;;;;;;4986173;28;2111;-71
2023/06/26 13:02:53;;;;;;;;;;;21.10;73.90;;;;;;4984012;28;1223;-71
2023/06/26 13:05:18;;;;;;;;;;;21.10;73.90;;;;;;5000311;28;1907;-70
2023/06/26 13:07:44;;;;;;;;;;;21.10;73.90;;;;;;4984985;28;825;-71
2023/06/26 13:10:09;;;;;;;;;;;21.10;73.90;;;;;;4979507;28;1342;-71
2023/06/26 13:12:35;;;;;;;;;;;21.10;74.00;;;;;;4983916;28;2102;-70
2023/06/26 13:15:00;;;;;;;;;;;21.10;73.90;;;;;;4984699;28;2244;-69
2023/06/26 13:17:26;;;;;;;;;;;21.10;73.90;;;;;;4987461;28;954;-69
2023/06/26 13:19:51;;;;;;;;;;;21.10;73.90;;;;;;4990792;28;1244;-69
2023/06/26 13:22:17;;;;;;;;;;;21.10;73.90;;;;;;4992818;28;879;-69
2023/06/26 13:24:42;;;;;;;;;;;21.10;73.80;;;;;;4991085;28;1902;-69
2023/06/26 13:27:08;;;;;;;;;;;21.20;74.70;;;;;;4988548;28;839;-69
2023/06/26 13:29:33;;;;;;;;;;;21.10;73.90;;;;;;4990354;28;1352;-69
2023/06/26 13:31:59;;;;;;;;;;;21.10;73.90;;;;;;4989549;28;799;-69
2023/06/26 13:34:27;;;;;;;;;;;21.10;73.90;;;;;;4983908;28;744;-69
2023/06/26 13:36:53;;;;;;;;;;;21.10;73.90;;;;;;4984202;28;986;-69
2023/06/26 13:39:18;;;;;;;;;;;21.10;73.90;;;;;;4985100;28;1270;-69
2023/06/26 13:41:44;;;;;;;;;;;21.10;73.90;;;;;;4985142;28;888;-69
2023/06/26 13:44:09;;;;;;;;;;;21.10;73.90;;;;;;4989140;28;1910;-69
2023/06/26 13:46:35;;;;;;;;;;;21.10;73.90;;;;;;4981616;28;923;-69
2023/06/26 13:49:00;;;;;;;;;;;21.10;73.90;;;;;;4985613;28;1402;-69
2023/06/26 13:51:26;;;;;;;;;;;21.10;73.90;;;;;;4982701;28;975;-70
2023/06/26 13:53:51;;;;;;;;;;;21.10;73.90;;;;;;4986414;28;1236;-69
2023/06/26 13:56:17;;;;;;;;;;;21.10;74.60;;;;;;4999493;28;1496;-70
2023/06/26 13:58:43;;;;;;;;;;;21.10;74.60;;;;;;4982122;28;1359;-70
2023/06/26 14:01:09;;;;;;;;;;;21.10;73.90;;;;;;4985459;28;832;-70
2023/06/26 14:03:34;;;;;;;;;;;21.10;73.80;;;;;;4980846;28;1902;-69
2023/06/26 14:06:00;;;;;;;;;;;21.10;73.90;;;;;;4984772;28;851;-69
2023/06/26 14:08:25;;;;;;;;;;;21.10;73.90;;;;;;4983912;28;944;-69
2023/06/26 14:10:51;;;;;;;;;;;21.10;73.80;;;;;;4982563;28;1243;-71
2023/06/26 14:13:16;;;;;;;;;;;21.10;73.80;;;;;;4982599;28;884;-71
2023/06/26 14:15:42;;;;;;;;;;;21.10;73.80;;;;;;4984443;28;1193;-71
2023/06/26 14:18:07;;;;;;;;;;;21.10;73.90;;;;;;4984762;28;950;-71
2023/06/26 14:20:33;;;;;;;;;;;21.10;73.80;;;;;;4982368;28;1276;-71
2023/06/26 14:22:59;;;;;;;;;;;21.20;73.90;;;;;;4984056;28;2138;-71
2023/06/26 14:25:26;;;;;;;;;;;21.10;73.90;;;;;;4991991;28;1894;-72
2023/06/26 14:27:51;;;;;;;;;;;21.20;73.90;;;;;;4993093;28;1548;-71
2023/06/26 14:30:17;;;;;;;;;;;21.10;73.90;;;;;;4987369;28;1948;-70